createdAt,value
2022-08-18T00:02:26.251Z,14.57
2022-08-18T00:04:57.206Z,13.77
2022-08-18T00:07:31.222Z,14.77
2022-08-18T00:09:59.747Z,14.75
2022-08-18T00:12:33.236Z,13.80
2022-08-18T00:15:04.193Z,14.15
2022-08-18T00:17:32.127Z,14.52
2022-08-18T00:19:59.210Z,14.10
2022-08-18T00:22:26.440Z,14.70
2022-08-18T00:24:55.430Z,14.55
2022-08-18T00:27:29.143Z,14.13
2022-08-18T00:30:01.294Z,14.98
2022-08-18T00:32:34.224Z,15.27
2022-08-18T00:37:41.098Z,16.23
2022-08-18T00:40:10.757Z,16.35
2022-08-18T00:42:45.691Z,16.13
2022-08-18T00:45:20.354Z,17.15
2022-08-18T00:47:47.460Z,14.95
2022-08-18T00:50:20.251Z,15.57
2022-08-18T00:52:55.406Z,18.10
2022-08-18T00:55:24.125Z,16.80
2022-08-18T00:57:55.136Z,16.55
2022-08-18T01:00:22.961Z,18.75
2022-08-18T01:02:55.982Z,20.70
2022-08-18T01:05:27.391Z,19.55
2022-08-18T01:07:54.459Z,19.92
2022-08-18T01:10:23.420Z,21.92
2022-08-18T01:12:53.956Z,21.73
2022-08-18T01:15:29.399Z,20.55
2022-08-18T01:18:25.570Z,20.58
2022-08-18T01:21:39.221Z,22.13
2022-08-18T01:24:08.900Z,20.30
2022-08-18T01:26:44.943Z,19.90
2022-08-18T01:29:18.683Z,22.80
2022-08-18T01:31:55.473Z,22.83
2022-08-18T01:34:26.014Z,21.88
2022-08-18T01:36:55.014Z,20.15
2022-08-18T01:41:20.957Z,21.48
2022-08-18T01:42:09.899Z,20.73
2022-08-18T01:44:36.895Z,21.65
2022-08-18T01:47:04.212Z,23.42
2022-08-18T01:49:31.125Z,23.50
2022-08-18T01:51:58.132Z,22.70
2022-08-18T01:54:29.954Z,24.27
2022-08-18T01:56:56.973Z,22.77
2022-08-18T01:59:23.824Z,25.00
2022-08-18T02:01:55.761Z,21.10
2022-08-18T02:04:36.453Z,23.43
2022-08-18T02:07:07.760Z,24.25
2022-08-18T02:09:36.600Z,24.33
2022-08-18T02:12:05.601Z,24.38
2022-08-18T02:14:33.000Z,25.17
2022-08-18T02:17:02.537Z,25.77
2022-08-18T02:19:39.016Z,25.15
2022-08-18T02:22:08.003Z,25.77
2022-08-18T02:24:35.113Z,26.35
2022-08-18T02:27:02.081Z,27.33
2022-08-18T02:29:29.099Z,26.48
2022-08-18T02:31:56.144Z,26.92
2022-08-18T02:34:23.611Z,26.70
2022-08-18T02:36:50.535Z,25.17
2022-08-18T02:39:17.884Z,24.65
2022-08-18T02:41:44.831Z,25.17
2022-08-18T02:44:11.863Z,28.05
2022-08-18T02:46:38.894Z,27.90
2022-08-18T02:49:08.172Z,28.45
2022-08-18T02:51:35.284Z,25.17
2022-08-18T02:54:02.250Z,25.00
2022-08-18T02:56:40.348Z,27.75
2022-08-18T02:59:12.498Z,28.05
2022-08-18T03:01:42.770Z,26.58
2022-08-18T03:04:12.563Z,23.90
2022-08-18T03:06:39.873Z,25.17
2022-08-18T03:09:09.560Z,24.73
2022-08-18T03:11:37.357Z,23.92
2022-08-18T03:14:05.662Z,24.05
2022-08-18T03:16:33.436Z,23.40
2022-08-18T03:19:01.813Z,23.13
2022-08-18T03:21:31.532Z,23.20
2022-08-18T03:24:00.682Z,23.00
2022-08-18T03:26:30.143Z,24.13
2022-08-18T03:28:58.304Z,27.83
2022-08-18T03:31:27.775Z,27.25
2022-08-18T03:33:59.380Z,27.05
2022-08-18T03:36:31.926Z,23.67
2022-08-18T03:39:01.804Z,25.65
2022-08-18T03:41:57.208Z,24.55
2022-08-18T03:44:18.310Z,27.08
2022-08-18T03:46:45.407Z,25.10
2022-08-18T03:49:12.809Z,31.35
2022-08-18T03:51:43.665Z,29.75
2022-08-18T03:54:13.214Z,29.05
2022-08-18T03:56:41.667Z,29.15
2022-08-18T03:59:13.739Z,29.13
2022-08-18T04:01:42.504Z,31.03
2022-08-18T04:04:12.135Z,30.30
2022-08-18T04:07:05.099Z,28.92
2022-08-18T04:09:32.966Z,32.00
2022-08-18T04:12:15.359Z,30.08
2022-08-18T04:14:46.557Z,31.10
2022-08-18T04:17:13.512Z,28.95
2022-08-18T04:19:40.350Z,29.63
2022-08-18T04:22:07.179Z,31.00
2022-08-18T04:24:34.719Z,31.13
2022-08-18T04:27:05.018Z,31.00
2022-08-18T04:29:32.222Z,32.00
2022-08-18T04:32:01.406Z,33.90
2022-08-18T04:34:28.453Z,30.98
2022-08-18T04:36:55.384Z,30.45
2022-08-18T04:39:23.586Z,29.52
2022-08-18T04:41:51.262Z,31.38
2022-08-18T04:44:18.782Z,33.08
2022-08-18T04:46:49.036Z,36.72
2022-08-18T04:49:17.954Z,36.97
2022-08-18T04:52:26.848Z,34.78
2022-08-18T04:54:53.057Z,34.35
2022-08-18T04:57:21.692Z,32.95
2022-08-18T04:59:51.163Z,33.70
2022-08-18T05:02:19.661Z,32.97
2022-08-18T05:04:47.306Z,30.80
2022-08-18T05:07:17.932Z,30.35
2022-08-18T05:09:44.807Z,29.27
2022-08-18T05:12:14.330Z,28.20
2022-08-18T05:14:44.643Z,29.70
2022-08-18T05:17:12.766Z,29.73
2022-08-18T05:19:42.268Z,30.02
2022-08-18T05:22:13.957Z,28.13
2022-08-18T05:24:41.591Z,28.48
2022-08-18T05:27:08.563Z,28.23
2022-08-18T05:29:41.472Z,27.50
2022-08-18T05:32:37.340Z,27.48
2022-08-18T05:35:02.552Z,28.58
2022-08-18T05:37:41.301Z,26.35
2022-08-18T05:40:11.257Z,28.30
2022-08-18T05:42:40.585Z,30.73
2022-08-18T05:45:12.658Z,34.42
2022-08-18T05:47:39.605Z,36.03
2022-08-18T05:50:17.324Z,39.40
2022-08-18T05:53:13.966Z,40.83
2022-08-18T05:56:13.955Z,41.60
2022-08-18T05:58:46.340Z,42.25
2022-08-18T06:01:21.623Z,42.83
2022-08-18T06:04:23.313Z,47.13
2022-08-18T06:06:51.579Z,46.90
2022-08-18T06:09:24.547Z,51.45
2022-08-18T06:14:20.263Z,54.15
2022-08-18T06:17:13.445Z,51.10
2022-08-18T06:19:47.719Z,52.58
2022-08-18T06:22:26.973Z,50.13
2022-08-18T06:25:06.531Z,52.10
2022-08-18T06:28:22.959Z,49.22
2022-08-18T06:31:11.087Z,53.17
2022-08-18T06:33:59.185Z,54.50
2022-08-18T06:36:49.966Z,52.20
2022-08-18T06:39:44.459Z,53.28
2022-08-18T06:42:11.370Z,55.58
2022-08-18T06:44:44.383Z,55.67
2022-08-18T06:47:31.004Z,60.67
2022-08-18T06:50:23.184Z,54.95
2022-08-18T06:52:56.362Z,58.05
2022-08-18T06:55:46.010Z,63.72
2022-08-18T06:58:15.913Z,64.57
2022-08-18T07:00:47.505Z,66.32
2022-08-18T07:03:38.236Z,63.13
2022-08-18T07:06:31.566Z,67.72
2022-08-18T07:12:04.581Z,66.95
2022-08-18T07:14:32.296Z,64.72
2022-08-18T07:17:22.385Z,66.20
2022-08-18T07:20:17.841Z,66.70
2022-08-18T07:22:53.980Z,64.65
2022-08-18T07:25:27.909Z,64.85
2022-08-18T07:27:57.263Z,62.53
2022-08-18T07:30:24.934Z,62.20
2022-08-18T07:33:12.347Z,62.33
2022-08-18T07:35:49.524Z,61.28
2022-08-18T07:38:42.051Z,60.17
2022-08-18T07:41:16.934Z,60.35
2022-08-18T07:43:59.545Z,56.25
2022-08-18T07:47:00.606Z,61.13
2022-08-18T07:49:32.927Z,59.95
2022-08-18T07:52:16.338Z,61.47
2022-08-18T07:55:06.472Z,61.78
2022-08-18T07:57:52.129Z,63.10
2022-08-18T08:00:55.318Z,62.47
2022-08-18T08:03:41.547Z,61.50
2022-08-18T08:06:19.147Z,65.55
2022-08-18T08:09:35.246Z,60.50
2022-08-18T08:12:11.250Z,59.70
2022-08-18T08:14:52.120Z,57.13
2022-08-18T08:17:25.762Z,57.42
2022-08-18T08:20:11.997Z,55.75
2022-08-18T08:23:04.795Z,51.33
2022-08-18T08:25:47.249Z,49.00
2022-08-18T08:28:31.580Z,47.20
2022-08-18T08:31:36.663Z,46.63
2022-08-18T08:34:33.643Z,42.60
2022-08-18T08:37:04.058Z,44.40
2022-08-18T08:39:49.713Z,45.63
2022-08-18T08:42:31.875Z,45.28
2022-08-18T08:45:16.265Z,42.30
2022-08-18T08:48:11.494Z,42.63
2022-08-18T08:50:49.266Z,41.47
2022-08-18T08:53:27.785Z,41.15
2022-08-18T08:56:02.524Z,40.42
2022-08-18T08:58:51.215Z,41.65
2022-08-18T09:01:27.115Z,41.47
2022-08-18T09:04:17.258Z,41.28
2022-08-18T09:06:53.069Z,41.25
2022-08-18T09:09:28.997Z,45.17
2022-08-18T09:12:13.905Z,45.42
2022-08-18T09:15:03.934Z,42.45
2022-08-18T09:18:08.552Z,42.80
2022-08-18T09:20:36.021Z,43.90
2022-08-18T09:23:18.369Z,40.75
2022-08-18T09:25:54.618Z,44.03
2022-08-18T09:28:30.674Z,42.72
2022-08-18T09:31:08.571Z,42.58
2022-08-18T09:33:40.650Z,42.38
2022-08-18T09:36:15.254Z,45.75
2022-08-18T09:39:36.381Z,45.40
2022-08-18T09:42:17.148Z,48.08
2022-08-18T09:44:48.753Z,48.83
2022-08-18T09:47:22.318Z,48.08
2022-08-18T09:49:53.824Z,45.40
2022-08-18T09:52:24.247Z,51.15
2022-08-18T09:54:53.761Z,44.97
2022-08-18T09:57:27.323Z,45.47
2022-08-18T09:59:56.834Z,45.70
2022-08-18T10:02:28.462Z,46.08
2022-08-18T10:05:17.576Z,49.65
2022-08-18T10:11:23.675Z,46.45
2022-08-18T10:14:23.400Z,45.45
2022-08-18T10:17:23.726Z,42.67
2022-08-18T10:20:26.755Z,44.28
2022-08-18T10:22:56.575Z,42.60
2022-08-18T10:25:37.296Z,42.38
2022-08-18T10:28:08.014Z,41.00
2022-08-18T10:30:56.923Z,42.80
2022-08-18T10:34:19.164Z,38.05
2022-08-18T10:36:58.871Z,37.78
2022-08-18T10:42:44.787Z,35.83
2022-08-18T10:48:34.773Z,38.28
2022-08-18T10:51:27.518Z,34.60
2022-08-18T10:54:02.594Z,38.92
2022-08-18T10:56:57.689Z,30.65
2022-08-18T10:59:31.912Z,33.15
2022-08-18T11:03:21.147Z,36.45
2022-08-18T11:05:42.985Z,47.28
2022-08-18T11:08:20.235Z,45.17
2022-08-18T11:11:27.434Z,49.58
2022-08-18T11:14:08.561Z,50.08
2022-08-18T11:16:59.528Z,45.33
2022-08-18T11:19:27.274Z,48.60
2022-08-18T11:21:54.340Z,48.42
2022-08-18T11:24:23.276Z,46.85
2022-08-18T11:27:04.384Z,44.05
2022-08-18T11:29:42.847Z,47.05
2022-08-18T11:32:34.946Z,47.60
2022-08-18T11:35:04.834Z,47.00
2022-08-18T11:37:56.387Z,48.47
2022-08-18T11:41:08.775Z,47.05
2022-08-18T11:46:29.596Z,44.38
2022-08-18T11:49:13.819Z,42.47
2022-08-18T11:52:02.187Z,42.80
2022-08-18T11:54:50.523Z,45.78
2022-08-18T12:00:46.336Z,43.70
2022-08-18T12:03:28.831Z,40.25
2022-08-18T12:06:10.528Z,40.40
2022-08-18T12:09:19.989Z,42.25
2022-08-18T12:12:13.786Z,39.83
2022-08-18T12:15:04.871Z,41.75
2022-08-18T12:17:39.142Z,42.45
2022-08-18T12:20:12.023Z,38.95
2022-08-18T12:22:43.000Z,40.55
2022-08-18T12:25:13.436Z,45.13
2022-08-18T12:27:41.525Z,41.22
2022-08-18T12:30:16.721Z,41.70
2022-08-18T12:35:30.712Z,37.75
2022-08-18T12:40:44.974Z,42.45
2022-08-18T12:43:12.422Z,41.28
2022-08-18T12:45:40.325Z,41.30
2022-08-18T12:48:08.325Z,37.85
2022-08-18T12:50:49.684Z,37.58
2022-08-18T12:53:17.209Z,36.35
2022-08-18T12:55:45.695Z,36.30
2022-08-18T12:58:13.131Z,37.10
2022-08-18T13:00:41.243Z,37.88
2022-08-18T13:03:08.656Z,38.40
2022-08-18T13:05:36.226Z,36.70
2022-08-18T13:08:05.955Z,40.10
2022-08-18T13:10:45.637Z,38.10
2022-08-18T13:13:25.096Z,40.28
2022-08-18T13:15:58.285Z,37.25
2022-08-18T13:18:27.442Z,37.95
2022-08-18T13:21:00.310Z,38.65
2022-08-18T13:23:28.517Z,36.53
2022-08-18T13:25:59.561Z,32.65
2022-08-18T13:28:35.884Z,34.95
2022-08-18T13:31:16.961Z,28.83
2022-08-18T13:33:59.397Z,28.55
2022-08-18T13:36:45.981Z,30.17
2022-08-18T13:39:19.193Z,30.55
2022-08-18T13:41:48.087Z,27.17
2022-08-18T13:44:19.018Z,28.90
2022-08-18T13:46:48.355Z,28.15
2022-08-18T13:49:18.628Z,32.22
2022-08-18T13:51:59.204Z,29.30
2022-08-18T13:54:35.135Z,28.25
2022-08-18T13:57:03.669Z,29.42
2022-08-18T13:59:33.165Z,27.90
2022-08-18T14:02:05.958Z,31.42
2022-08-18T14:04:36.417Z,29.98
2022-08-18T14:07:09.988Z,25.95
2022-08-18T14:09:38.419Z,28.38
2022-08-18T14:12:21.463Z,29.63
2022-08-18T14:14:54.392Z,28.92
2022-08-18T14:17:24.831Z,28.95
2022-08-18T14:20:15.512Z,28.58
2022-08-18T14:23:12.339Z,32.97
2022-08-18T14:25:59.815Z,29.25
2022-08-18T14:28:28.444Z,30.08
2022-08-18T14:30:56.961Z,29.73
2022-08-18T14:33:49.599Z,27.02
2022-08-18T14:36:16.481Z,25.90
2022-08-18T14:38:45.250Z,26.52
2022-08-18T14:41:14.783Z,28.48
2022-08-18T14:44:10.961Z,26.25
2022-08-18T14:46:32.741Z,26.95
2022-08-18T14:49:04.147Z,23.67
2022-08-18T14:51:33.709Z,26.75
2022-08-18T14:54:01.655Z,25.98
2022-08-18T14:56:29.638Z,25.63
2022-08-18T14:58:59.628Z,25.05
2022-08-18T15:01:27.394Z,24.52
2022-08-18T15:03:55.041Z,22.92
2022-08-18T15:06:27.092Z,24.10
2022-08-18T15:08:54.875Z,23.02
2022-08-18T15:11:24.928Z,25.58
2022-08-18T15:13:55.132Z,24.58
2022-08-18T15:16:31.550Z,22.77
2022-08-18T15:18:59.397Z,23.50
2022-08-18T15:21:49.074Z,20.77
2022-08-18T15:24:39.782Z,22.10
2022-08-18T15:27:10.443Z,20.02
2022-08-18T15:29:46.612Z,20.20
2022-08-18T15:32:17.643Z,18.08
2022-08-18T15:34:46.415Z,18.63
2022-08-18T15:37:19.986Z,17.10
2022-08-18T15:39:55.437Z,15.68
2022-08-18T15:42:23.698Z,15.18
2022-08-18T15:44:52.752Z,15.68
2022-08-18T15:47:21.316Z,14.15
2022-08-18T15:49:48.531Z,13.23
2022-08-18T15:52:17.653Z,12.32
2022-08-18T15:54:50.327Z,11.27
2022-08-18T15:57:39.655Z,14.68
2022-08-18T16:00:06.006Z,15.73
2022-08-18T16:02:33.749Z,16.42
2022-08-18T16:05:10.478Z,14.02
2022-08-18T16:07:45.199Z,13.98
2022-08-18T16:10:13.675Z,17.35
2022-08-18T16:12:45.719Z,17.52
2022-08-18T16:17:50.452Z,17.02
2022-08-18T16:20:18.884Z,17.48
2022-08-18T16:22:47.183Z,16.02
2022-08-18T16:25:16.613Z,14.98
2022-08-18T16:27:44.472Z,16.10
2022-08-18T16:30:15.064Z,15.25
2022-08-18T16:32:42.531Z,13.98
2022-08-18T16:35:11.146Z,14.75
2022-08-18T16:37:38.235Z,13.57
2022-08-18T16:40:06.647Z,13.43
2022-08-18T16:42:33.648Z,14.00
2022-08-18T16:45:01.558Z,12.55
2022-08-18T16:47:28.768Z,11.10
2022-08-18T16:49:58.487Z,9.52
2022-08-18T16:52:27.204Z,9.27
2022-08-18T16:54:58.038Z,8.70
2022-08-18T16:57:53.979Z,9.25
2022-08-18T17:00:41.947Z,8.20
2022-08-18T17:03:28.149Z,8.02
2022-08-18T17:06:07.660Z,8.63
2022-08-18T17:08:35.831Z,8.40
2022-08-18T17:11:04.563Z,8.95
2022-08-18T17:13:32.423Z,8.02
2022-08-18T17:15:59.292Z,8.27
2022-08-18T17:18:27.083Z,9.38
2022-08-18T17:20:54.359Z,9.32
2022-08-18T17:23:22.570Z,9.23
2022-08-18T17:25:50.872Z,8.85
2022-08-18T17:28:23.065Z,8.60
2022-08-18T17:30:53.499Z,8.82
2022-08-18T17:33:25.754Z,9.07
2022-08-18T17:35:54.254Z,9.50
2022-08-18T17:38:27.692Z,9.77
2022-08-18T17:40:57.186Z,9.82
2022-08-18T17:43:29.125Z,9.88
2022-08-18T17:46:02.245Z,10.37
2022-08-18T17:48:37.517Z,11.45
2022-08-18T17:51:30.421Z,12.60
2022-08-18T17:54:01.434Z,11.75
2022-08-18T17:56:38.167Z,12.25
2022-08-18T17:59:46.374Z,12.60
2022-08-18T18:02:29.347Z,12.07
2022-08-18T18:05:02.058Z,12.45
2022-08-18T18:07:40.544Z,12.60
2022-08-18T18:10:23.239Z,12.15
2022-08-18T18:13:09.097Z,12.50
2022-08-18T18:15:40.684Z,11.75
2022-08-18T18:18:19.596Z,12.13
2022-08-18T18:21:16.395Z,12.02
2022-08-18T18:23:50.442Z,12.40
2022-08-18T18:26:37.574Z,12.40
2022-08-18T18:29:15.868Z,12.05
2022-08-18T18:31:58.206Z,12.10
2022-08-18T18:34:30.595Z,11.70
2022-08-18T18:36:59.465Z,10.60
2022-08-18T18:39:38.055Z,11.27
2022-08-18T18:42:19.526Z,11.70
2022-08-18T18:44:59.299Z,11.40
2022-08-18T18:47:44.081Z,11.50
2022-08-18T18:50:53.079Z,11.30
2022-08-18T18:53:54.859Z,11.38
2022-08-18T18:56:28.884Z,10.93
2022-08-18T18:59:18.761Z,10.48
2022-08-18T19:02:13.670Z,10.57
2022-08-18T19:05:04.276Z,9.93
2022-08-18T19:07:49.832Z,9.77
2022-08-18T19:10:39.432Z,8.95
2022-08-18T19:13:32.634Z,10.07
2022-08-18T19:16:33.927Z,9.95
2022-08-18T19:19:38.424Z,9.93
2022-08-18T19:22:45.016Z,9.07
2022-08-18T19:25:26.844Z,9.40
2022-08-18T19:28:12.203Z,9.10
2022-08-18T19:30:44.002Z,9.68
2022-08-18T19:33:24.794Z,10.13
2022-08-18T19:36:04.763Z,11.17
2022-08-18T19:38:59.130Z,10.05
2022-08-18T19:41:56.714Z,9.85
2022-08-18T19:44:26.685Z,10.55
2022-08-18T19:47:04.753Z,10.05
2022-08-18T19:49:50.039Z,9.20
2022-08-18T19:52:59.472Z,9.77
2022-08-18T19:55:44.396Z,9.98
2022-08-18T19:58:20.090Z,9.15
2022-08-18T20:00:57.918Z,9.60
2022-08-18T20:03:52.602Z,9.98
2022-08-18T20:06:36.030Z,9.07
2022-08-18T20:09:13.126Z,10.23
2022-08-18T20:12:22.215Z,9.73
2022-08-18T20:15:03.089Z,9.45
2022-08-18T20:17:31.283Z,10.00
2022-08-18T20:20:13.776Z,9.60
2022-08-18T20:22:46.706Z,9.75
2022-08-18T20:25:17.712Z,10.57
2022-08-18T20:27:53.296Z,9.98
2022-08-18T20:30:20.126Z,10.48
2022-08-18T20:33:05.772Z,10.60
2022-08-18T20:36:15.316Z,9.63
2022-08-18T20:38:48.016Z,9.80
2022-08-18T20:41:24.697Z,9.95
2022-08-18T20:43:55.516Z,11.23
2022-08-18T20:47:04.840Z,10.48
2022-08-18T20:49:50.932Z,10.45
2022-08-18T20:52:29.658Z,10.32
2022-08-18T20:55:11.666Z,11.40
2022-08-18T20:57:40.208Z,11.05
2022-08-18T21:00:22.703Z,10.43
2022-08-18T21:02:57.836Z,10.27
2022-08-18T21:05:27.679Z,10.07
2022-08-18T21:08:19.984Z,10.18
2022-08-18T21:10:58.230Z,9.90
2022-08-18T21:13:41.568Z,10.13
2022-08-18T21:16:11.112Z,10.20
2022-08-18T21:18:39.577Z,9.85
2022-08-18T21:21:26.853Z,10.30
2022-08-18T21:23:58.099Z,10.07
2022-08-18T21:26:26.879Z,10.00
2022-08-18T21:28:58.511Z,11.00
2022-08-18T21:31:42.177Z,10.25
2022-08-18T21:34:33.451Z,9.73
2022-08-18T21:37:08.502Z,10.43
2022-08-18T21:39:46.336Z,9.68
2022-08-18T21:42:28.037Z,10.15
2022-08-18T21:44:57.310Z,9.93
2022-08-18T21:47:33.289Z,10.80
2022-08-18T21:50:23.248Z,10.95
2022-08-18T21:52:54.171Z,9.88
2022-08-18T21:55:27.290Z,10.20
2022-08-18T21:58:01.344Z,10.05
2022-08-18T22:00:32.057Z,10.45
2022-08-18T22:03:28.278Z,10.13
2022-08-18T22:06:21.361Z,9.77
2022-08-18T22:09:28.700Z,9.65
2022-08-18T22:12:52.738Z,9.52
2022-08-18T22:15:39.390Z,10.30
2022-08-18T22:18:28.687Z,13.60
2022-08-18T22:20:58.784Z,13.00
2022-08-18T22:23:57.312Z,11.23
2022-08-18T22:26:28.745Z,9.45
2022-08-18T22:29:21.559Z,9.45
2022-08-18T22:31:51.548Z,10.23
2022-08-18T22:34:27.730Z,11.00
2022-08-18T22:37:01.621Z,9.75
2022-08-18T22:39:37.930Z,9.80
2022-08-18T22:42:07.091Z,9.65
2022-08-18T22:44:34.201Z,9.57
2022-08-18T22:47:03.286Z,9.02
2022-08-18T22:49:30.724Z,9.48
2022-08-18T22:51:58.171Z,8.70
2022-08-18T22:54:25.496Z,9.50
2022-08-18T22:56:53.795Z,9.30
2022-08-18T22:59:26.998Z,8.23
2022-08-18T23:01:55.288Z,9.20
2022-08-18T23:04:25.590Z,8.55
2022-08-18T23:06:53.837Z,8.77
2022-08-18T23:09:26.988Z,9.43
2022-08-18T23:11:56.284Z,8.82
2022-08-18T23:14:23.436Z,9.00
2022-08-18T23:16:50.919Z,8.20
2022-08-18T23:19:19.600Z,8.57
2022-08-18T23:21:48.514Z,9.15
2022-08-18T23:24:16.891Z,9.07
2022-08-18T23:26:43.805Z,9.00
2022-08-18T23:29:12.500Z,9.18
2022-08-18T23:31:41.640Z,10.68
2022-08-18T23:34:11.511Z,10.43
2022-08-18T23:36:45.070Z,9.32
2022-08-18T23:39:13.091Z,9.95
2022-08-18T23:41:40.071Z,10.52
2022-08-18T23:44:07.156Z,9.02
2022-08-18T23:46:34.941Z,10.48
2022-08-18T23:49:04.244Z,9.95
2022-08-18T23:51:37.423Z,8.85
2022-08-18T23:54:08.071Z,9.90
2022-08-18T23:56:36.336Z,9.30
2022-08-18T23:59:06.361Z,10.52
